Time;durP1;ratioP1;P1;durP2;ratioP2;P2;SDS_P1;SDS_P2;PMS_P1;PMS_P2;Temp;Humidity;BMP_temperature;BMP_pressure;BME280_temperature;BME280_humidity;BME280_pressure;Samples;Min_cycle;Max_cycle;Signal;HPM_P1;HPM_P2
2021/04/21 00:00:30;;;;;;;5.10;3.80;;;17.70;58.50;;;;;;10479486;28;20110;-57
2021/04/21 00:05:31;;;;;;;5.30;4.30;;;17.80;58.50;;;;;;10458286;28;20025;-56
2021/04/21 00:10:31;;;;;;;4.82;3.88;;;17.70;58.40;;;;;;10478984;28;20077;-57
2021/04/21 00:15:32;;;;;;;6.15;4.25;;;17.80;58.50;;;;;;10478834;28;20071;-57
2021/04/21 00:20:35;;;;;;;5.18;4.40;;;17.70;58.40;;;;;;10496332;28;20031;-57
2021/04/21 00:25:38;;;;;;;5.28;3.92;;;17.70;58.50;;;;;;10479036;28;20044;-57
2021/04/21 00:30:40;;;;;;;4.95;4.45;;;17.70;58.50;;;;;;10496309;28;20039;-57
2021/04/21 00:35:43;;;;;;;5.53;4.20;;;17.70;58.40;;;;;;10478822;28;20074;-57
2021/04/21 00:40:43;;;;;;;5.25;4.00;;;17.70;58.40;;;;;;10494140;28;20423;-56
2021/04/21 00:45:49;;;;;;;4.95;3.88;;;17.70;58.50;;;;;;10495238;28;20105;-57
2021/04/21 00:51:01;;;;;;;5.35;4.85;;;17.70;58.50;;;;;;10495589;28;20089;-57
2021/04/21 00:56:23;;;;;;;4.47;3.85;;;17.70;58.40;;;;;;10477873;28;20111;-55
2021/04/21 01:01:25;;;;;;;4.90;4.20;;;17.70;58.40;;;;;;10495676;28;20507;-57
2021/04/21 01:06:37;;;;;;;4.50;4.00;;;17.70;58.20;;;;;;10509047;28;20025;-56
2021/04/21 01:12:02;;;;;;;4.97;4.13;;;17.70;58.10;;;;;;10472898;28;20036;-56
2021/04/21 01:17:08;;;;;;;4.93;3.72;;;17.70;58.10;;;;;;10502097;28;20033;-56
2021/04/21 01:22:38;;;;;;;4.93;3.20;;;17.70;58.10;;;;;;10502964;28;20404;-57
2021/04/21 01:27:44;;;;;;;4.78;3.70;;;17.70;58.10;;;;;;10502479;28;20082;-56
2021/04/21 01:32:50;;;;;;;4.43;3.50;;;17.70;58.10;;;;;;10484791;28;20029;-56
2021/04/21 01:38:01;;;;;;;6.55;3.92;;;17.70;58.10;;;;;;10484557;28;20421;-57
2021/04/21 01:43:28;;;;;;;4.32;3.92;;;17.70;58.00;;;;;;10476824;28;20561;-57
2021/04/21 01:48:34;;;;;;;4.50;3.30;;;17.70;57.90;;;;;;10484799;28;20076;-57
2021/04/21 01:53:52;;;;;;;4.50;3.88;;;17.70;57.80;;;;;;10484047;28;20052;-56
2021/04/21 01:59:09;;;;;;;3.97;3.45;;;17.70;57.70;;;;;;10485500;28;20037;-56
2021/04/21 02:04:41;;;;;;;4.68;3.70;;;17.70;57.70;;;;;;10500395;28;20429;-56
2021/04/21 02:10:05;;;;;;;4.60;3.83;;;17.70;57.70;;;;;;10501104;28;20491;-56
2021/04/21 02:15:45;;;;;;;4.85;3.17;;;17.70;57.70;;;;;;10501392;28;20078;-56
2021/04/21 02:21:23;;;;;;;4.03;3.20;;;17.70;57.70;;;;;;10477617;28;20036;-57
2021/04/21 02:26:59;;;;;;;4.00;3.30;;;17.70;57.80;;;;;;10471472;28;20439;-57
2021/04/21 02:32:06;;;;;;;4.68;3.70;;;17.70;57.80;;;;;;10477182;28;20508;-57
2021/04/21 02:37:40;;;;;;;4.78;3.70;;;17.70;57.70;;;;;;10499686;28;20036;-56
2021/04/21 02:43:01;;;;;;;3.83;3.03;;;17.70;57.60;;;;;;10498320;28;20041;-57
2021/04/21 02:48:30;;;;;;;3.67;3.20;;;17.70;57.50;;;;;;10484401;28;20036;-57
2021/04/21 02:54:08;;;;;;;5.53;3.80;;;17.80;57.50;;;;;;10482573;28;20107;-57
2021/04/21 02:59:42;;;;;;;4.10;2.85;;;17.80;57.40;;;;;;10498710;28;20090;-57
2021/04/21 03:04:55;;;;;;;3.83;3.13;;;17.80;57.40;;;;;;10497379;28;20032;-57
2021/04/21 03:10:13;;;;;;;4.25;3.30;;;17.80;57.30;;;;;;10498548;28;20060;-57
2021/04/21 03:15:20;;;;;;;5.55;3.65;;;17.80;57.30;;;;;;10498524;28;20036;-57
2021/04/21 03:20:24;;;;;;;3.40;3.10;;;17.80;57.40;;;;;;10471823;28;20107;-57
2021/04/21 03:25:30;;;;;;;4.13;3.33;;;17.70;57.30;;;;;;10468337;28;20074;-57
2021/04/21 03:30:34;;;;;;;4.78;3.42;;;17.70;57.40;;;;;;10497588;28;20036;-57
2021/04/21 03:35:37;;;;;;;3.78;3.00;;;17.70;57.50;;;;;;10479993;28;20031;-57
2021/04/21 03:40:38;;;;;;;4.70;3.35;;;17.70;57.50;;;;;;10478484;28;20039;-57
2021/04/21 03:45:44;;;;;;;4.05;3.15;;;17.60;57.50;;;;;;10497313;28;20040;-57
2021/04/21 03:50:50;;;;;;;3.95;2.97;;;17.70;57.50;;;;;;10479042;28;20082;-57
2021/04/21 03:55:55;;;;;;;3.97;3.10;;;17.60;57.50;;;;;;10475679;28;20039;-57
2021/04/21 04:01:34;;;;;;;4.90;3.50;;;17.60;57.60;;;;;;10478603;28;20058;-56
2021/04/21 04:06:47;;;;;;;4.00;3.22;;;17.60;57.40;;;;;;10466459;28;20131;-56
2021/04/21 04:11:52;;;;;;;4.15;3.35;;;17.70;57.30;;;;;;10478684;28;20051;-56
2021/04/21 04:16:57;;;;;;;4.53;3.60;;;17.70;57.30;;;;;;10453893;28;20393;-57
2021/04/21 04:22:07;;;;;;;4.03;3.10;;;17.70;57.30;;;;;;10485561;28;20402;-57
2021/04/21 04:27:27;;;;;;;3.38;2.90;;;17.70;57.20;;;;;;10494090;28;20024;-57
2021/04/21 04:32:28;;;;;;;3.67;2.70;;;17.70;57.20;;;;;;10495766;28;20771;-56
2021/04/21 04:37:30;;;;;;;3.65;2.88;;;17.70;57.10;;;;;;10496201;28;20025;-58
2021/04/21 04:42:31;;;;;;;4.00;3.20;;;17.70;57.10;;;;;;10496174;28;20044;-55
2021/04/21 04:47:51;;;;;;;4.13;3.50;;;17.70;57.20;;;;;;10482814;28;20411;-57
2021/04/21 04:52:55;;;;;;;4.03;2.80;;;17.60;57.20;;;;;;10517815;28;20040;-56
2021/04/21 04:57:57;;;;;;;3.15;2.72;;;17.60;57.20;;;;;;10486074;28;20025;-57
2021/04/21 05:03:21;;;;;;;4.13;3.28;;;17.60;57.20;;;;;;10503620;28;20119;-56
2021/04/21 05:08:28;;;;;;;4.00;3.13;;;17.60;57.20;;;;;;10501913;28;20028;-56
2021/04/21 05:13:50;;;;;;;4.72;2.60;;;17.60;57.10;;;;;;10502392;28;20020;-53
2021/04/21 05:19:47;;;;;;;5.13;3.42;;;17.70;57.40;;;;;;10501982;28;20484;-53
2021/04/21 05:25:44;;;;;;;6.43;2.38;;;17.70;57.60;;;;;;10481280;28;20041;-55
2021/04/21 05:31:09;;;;;;;11.07;3.58;;;17.70;58.30;;;;;;10501135;28;20037;-53
2021/04/21 05:37:05;;;;;;;4.20;2.70;;;17.70;59.10;;;;;;10502677;28;20032;-55
2021/04/21 05:42:59;;;;;;;6.63;4.10;;;17.70;59.00;;;;;;10496893;28;20518;-54
2021/04/21 05:48:48;;;;;;;10.40;4.10;;;17.70;59.60;;;;;;10500874;28;20123;-47
2021/04/21 05:54:22;;;;;;;16.00;4.65;;;17.70;59.90;;;;;;10501737;28;20038;-51
2021/04/21 06:00:11;;;;;;;18.20;4.88;;;17.80;60.10;;;;;;10500906;28;20392;-57
2021/04/21 06:05:15;;;;;;;17.60;4.35;;;17.70;59.90;;;;;;10484278;28;20029;-51
2021/04/21 06:10:28;;;;;;;16.77;5.40;;;17.70;59.80;;;;;;10472680;28;20091;-57
2021/04/21 06:15:33;;;;;;;18.10;5.28;;;17.60;60.00;;;;;;10482758;28;20507;-55
2021/04/21 06:20:40;;;;;;;16.25;4.75;;;17.70;59.90;;;;;;10500247;28;20060;-57
2021/04/21 06:25:43;;;;;;;11.68;4.57;;;17.60;59.80;;;;;;10489120;28;20033;-56
2021/04/21 06:31:10;;;;;;;10.15;5.13;;;17.60;59.70;;;;;;10492629;28;20393;-56
2021/04/21 06:36:13;;;;;;;11.63;4.75;;;17.60;59.70;;;;;;10485367;28;20044;-57
2021/04/21 06:41:14;;;;;;;8.98;4.82;;;17.60;59.70;;;;;;10499293;28;20040;-58
2021/04/21 06:46:18;;;;;;;16.80;5.50;;;17.60;59.60;;;;;;10499545;28;20031;-57
2021/04/21 06:51:21;;;;;;;11.05;5.80;;;17.50;59.40;;;;;;10496020;28;20043;-58
2021/04/21 06:56:33;;;;;;;10.02;6.05;;;17.50;59.30;;;;;;10499032;28;20053;-58
2021/04/21 07:01:34;;;;;;;10.82;6.03;;;17.50;59.30;;;;;;10480979;28;20085;-57
2021/04/21 07:06:35;;;;;;;8.68;6.30;;;17.40;59.70;;;;;;10478610;28;20041;-58
2021/04/21 07:11:36;;;;;;;17.50;8.23;;;17.50;59.10;;;;;;10478896;28;20041;-58
2021/04/21 07:16:41;;;;;;;14.38;9.32;;;17.50;58.70;;;;;;10497772;28;20047;-58
2021/04/21 07:21:42;;;;;;;13.75;8.27;;;17.50;58.60;;;;;;10476717;28;20536;-58
2021/04/21 07:26:47;;;;;;;13.45;7.55;;;17.50;58.50;;;;;;10494940;28;20044;-57
2021/04/21 07:31:49;;;;;;;15.63;8.50;;;17.50;58.40;;;;;;10463829;28;20033;-57
2021/04/21 07:36:49;;;;;;;13.05;8.32;;;17.50;58.30;;;;;;10489926;28;20043;-58
2021/04/21 07:41:51;;;;;;;12.00;7.85;;;17.50;58.30;;;;;;10497276;28;20556;-58
2021/04/21 07:47:05;;;;;;;14.57;7.75;;;17.50;58.40;;;;;;10497223;28;20457;-59
2021/04/21 07:52:06;;;;;;;9.32;7.20;;;17.50;58.50;;;;;;10497641;28;20111;-58
2021/04/21 07:57:17;;;;;;;9.15;7.22;;;17.50;58.70;;;;;;10497160;28;20388;-57
2021/04/21 08:02:22;;;;;;;23.40;8.95;;;17.50;58.60;;;;;;10496028;28;20028;-58
2021/04/21 08:07:32;;;;;;;40.85;10.93;;;17.50;58.90;;;;;;10494062;28;20032;-58
2021/04/21 08:12:35;;;;;;;;;;;17.50;59.50;;;;;;10480027;28;20416;-58
2021/04/21 08:18:10;;;;;;;20.77;8.25;;;17.60;59.80;;;;;;10496657;28;20024;-59
2021/04/21 08:23:17;;;;;;;12.63;7.13;;;17.50;59.00;;;;;;10502454;28;20467;-58
2021/04/21 08:28:21;;;;;;;15.18;8.15;;;17.50;59.10;;;;;;10504704;28;20028;-59
2021/04/21 08:33:22;;;;;;;16.23;6.40;;;17.50;59.10;;;;;;10504614;28;20037;-58
2021/04/21 08:38:23;;;;;;;15.30;6.40;;;17.50;59.20;;;;;;10503711;28;20028;-58
2021/04/21 08:43:25;;;;;;;13.15;5.60;;;17.50;59.20;;;;;;10502802;28;20094;-57
2021/04/21 08:48:28;;;;;;;12.52;5.78;;;17.50;59.20;;;;;;10500783;28;20063;-56
2021/04/21 08:53:34;;;;;;;11.43;5.70;;;17.50;59.30;;;;;;10466355;28;20468;-56
2021/04/21 08:58:35;;;;;;;10.02;4.72;;;17.60;59.30;;;;;;10478008;28;20064;-57
2021/04/21 09:03:37;;;;;;;12.77;5.65;;;17.60;59.30;;;;;;10485542;28;20475;-58
2021/04/21 09:08:39;;;;;;;9.23;5.22;;;17.60;59.30;;;;;;10473333;28;20028;-57
2021/04/21 09:13:41;;;;;;;7.93;5.20;;;17.60;59.30;;;;;;10503444;28;20046;-58
2021/04/21 09:18:43;;;;;;;10.77;4.40;;;17.60;59.30;;;;;;10502669;28;20042;-58
2021/04/21 09:23:46;;;;;;;10.55;5.20;;;17.60;59.30;;;;;;10502493;28;20496;-58
2021/04/21 09:28:55;;;;;;;7.03;4.43;;;17.60;59.30;;;;;;10502056;28;20067;-55
2021/04/21 09:34:26;;;;;;;13.85;4.25;;;17.60;59.40;;;;;;10501450;28;20029;-57
2021/04/21 09:39:27;;;;;;;6.72;4.25;;;17.60;59.30;;;;;;10501673;28;20419;-58
2021/04/21 09:44:30;;;;;;;6.53;3.80;;;17.60;59.30;;;;;;10501351;28;20098;-58
2021/04/21 09:49:41;;;;;;;9.18;4.07;;;17.50;59.30;;;;;;10501526;28;20029;-58
2021/04/21 09:54:47;;;;;;;5.93;3.53;;;17.60;59.40;;;;;;10483218;28;20056;-58
2021/04/21 10:00:05;;;;;;;6.22;3.83;;;17.60;59.40;;;;;;10479310;28;20031;-58
2021/04/21 10:05:33;;;;;;;6.68;4.45;;;17.60;59.40;;;;;;10500811;28;20113;-58
2021/04/21 10:10:34;;;;;;;7.45;3.33;;;17.60;59.30;;;;;;10488063;28;20048;-58
2021/04/21 10:15:34;;;;;;;7.85;3.78;;;17.70;59.40;;;;;;10500503;28;20442;-59
2021/04/21 10:20:35;;;;;;;5.80;3.80;;;17.60;59.30;;;;;;10498958;28;20040;-58
2021/04/21 10:25:36;;;;;;;8.38;4.25;;;17.70;59.10;;;;;;10482692;28;20032;-58
2021/04/21 10:30:37;;;;;;;7.32;4.80;;;17.70;58.80;;;;;;10499607;28;20025;-58
2021/04/21 10:35:38;;;;;;;9.70;6.13;;;17.70;58.60;;;;;;10499558;28;20127;-58
2021/04/21 10:40:38;;;;;;;6.72;5.30;;;17.70;58.40;;;;;;10480483;28;20028;-57
2021/04/21 10:45:51;;;;;;;9.70;5.70;;;17.70;58.40;;;;;;10498314;28;20048;-58
2021/04/21 10:50:52;;;;;;;9.32;6.07;;;17.70;58.20;;;;;;10499300;28;20534;-58
2021/04/21 10:55:53;;;;;;;9.85;6.05;;;17.80;58.20;;;;;;10473822;28;20035;-59
2021/04/21 11:00:53;;;;;;;9.35;5.75;;;17.80;58.10;;;;;;10498063;28;20357;-59
2021/04/21 11:06:02;;;;;;;9.60;6.30;;;17.80;57.90;;;;;;10498596;28;20111;-59
2021/04/21 11:11:06;;;;;;;9.97;5.73;;;17.80;57.50;;;;;;10498237;28;20357;-58
2021/04/21 11:16:12;;;;;;;8.32;5.80;;;17.80;57.40;;;;;;10471902;28;20032;-58
2021/04/21 11:21:29;;;;;;;7.32;4.55;;;17.80;57.20;;;;;;10494911;28;20062;-58
2021/04/21 11:26:41;;;;;;;8.52;5.18;;;17.90;57.20;;;;;;10480471;28;20056;-57
2021/04/21 11:31:44;;;;;;;8.05;5.88;;;17.90;57.10;;;;;;10478327;28;20028;-58
2021/04/21 11:36:56;;;;;;;9.90;5.45;;;17.90;56.90;;;;;;10496678;28;20040;-57
2021/04/21 11:42:22;;;;;;;10.52;5.65;;;18.00;56.70;;;;;;10479082;28;20048;-57
2021/04/21 11:47:32;;;;;;;8.57;6.60;;;18.00;56.40;;;;;;10496218;28;20047;-58
2021/04/21 11:52:43;;;;;;;8.60;5.63;;;18.00;56.30;;;;;;10495976;28;20043;-55
2021/04/21 11:58:10;;;;;;;6.55;5.15;;;18.00;56.00;;;;;;10495908;28;20045;-58
2021/04/21 12:03:35;;;;;;;8.85;4.95;;;18.00;56.40;;;;;;10496273;28;20033;-58
2021/04/21 12:08:49;;;;;;;12.27;5.75;;;18.00;56.50;;;;;;10479008;28;20040;-55
2021/04/21 12:13:49;;;;;;;6.93;5.75;;;18.00;56.70;;;;;;10495773;28;20032;-59
2021/04/21 12:19:00;;;;;;;6.10;4.88;;;18.00;56.70;;;;;;10495616;28;20550;-58
2021/04/21 12:24:07;;;;;;;8.20;4.85;;;18.00;56.70;;;;;;10494068;28;20035;-58
2021/04/21 12:29:15;;;;;;;8.77;5.88;;;18.00;56.70;;;;;;10495561;28;20028;-58
2021/04/21 12:34:20;;;;;;;8.50;5.20;;;18.00;56.60;;;;;;10495811;28;20036;-58
2021/04/21 12:39:23;;;;;;;7.82;5.13;;;18.10;56.60;;;;;;10495289;28;20078;-58
2021/04/21 12:44:40;;;;;;;7.75;5.25;;;18.10;56.50;;;;;;10482784;28;20053;-58
2021/04/21 12:49:48;;;;;;;6.65;5.13;;;18.10;56.40;;;;;;10500875;28;20081;-57
2021/04/21 12:54:50;;;;;;;6.65;5.53;;;18.10;56.10;;;;;;10501649;28;20025;-58
2021/04/21 12:59:54;;;;;;;9.00;5.00;;;18.20;56.10;;;;;;10495485;28;20051;-58
2021/04/21 13:04:55;;;;;;;9.18;5.45;;;18.20;56.00;;;;;;10495405;28;20430;-57
2021/04/21 13:10:16;;;;;;;10.43;4.47;;;18.20;56.30;;;;;;10502051;28;20060;-58
2021/04/21 13:15:20;;;;;;;8.68;5.00;;;18.20;56.10;;;;;;10501786;28;20039;-58
2021/04/21 13:20:48;;;;;;;8.52;5.13;;;18.20;56.10;;;;;;10502620;28;20040;-58
2021/04/21 13:25:55;;;;;;;10.63;5.07;;;18.30;56.10;;;;;;10491827;28;20040;-58
2021/04/21 13:31:22;;;;;;;9.35;5.32;;;18.30;55.90;;;;;;10502310;28;20507;-58
2021/04/21 13:36:23;;;;;;;8.00;4.22;;;18.30;55.80;;;;;;10496965;28;20044;-57
2021/04/21 13:41:24;;;;;;;7.03;3.90;;;18.30;55.60;;;;;;10501763;28;20049;-57
2021/04/21 13:46:24;;;;;;;8.50;4.90;;;18.30;55.50;;;;;;10501521;28;20042;-57
2021/04/21 13:51:25;;;;;;;9.38;4.50;;;18.30;55.50;;;;;;10500499;28;20024;-56
2021/04/21 13:56:26;;;;;;;8.55;3.83;;;18.40;55.50;;;;;;10479167;28;20020;-57
2021/04/21 14:01:27;;;;;;;5.70;3.50;;;18.40;55.30;;;;;;10500515;28;20024;-56
2021/04/21 14:06:28;;;;;;;4.93;3.47;;;18.40;55.30;;;;;;10480044;28;20063;-58
2021/04/21 14:11:28;;;;;;;9.80;3.78;;;18.30;55.10;;;;;;10497948;28;21046;-56
2021/04/21 14:16:29;;;;;;;6.07;3.63;;;18.30;55.10;;;;;;10489242;28;20036;-57
2021/04/21 14:21:30;;;;;;;6.63;3.70;;;18.20;55.10;;;;;;10462233;28;20036;-56
2021/04/21 14:26:31;;;;;;;7.72;3.60;;;18.30;55.00;;;;;;10493850;28;20055;-57
2021/04/21 14:31:36;;;;;;;5.43;3.50;;;18.20;54.90;;;;;;10462710;28;20559;-56
2021/04/21 14:36:37;;;;;;;6.85;3.40;;;18.30;54.80;;;;;;10492810;28;20025;-58
2021/04/21 14:41:40;;;;;;;4.25;3.40;;;18.30;54.70;;;;;;10468951;28;20047;-57
2021/04/21 14:46:44;;;;;;;4.63;3.40;;;18.20;54.40;;;;;;10492084;28;20033;-58
2021/04/21 14:51:45;;;;;;;5.55;3.53;;;18.20;54.50;;;;;;10473742;28;20539;-58
2021/04/21 14:56:46;;;;;;;5.43;2.72;;;18.20;54.60;;;;;;10491803;28;20033;-57
2021/04/21 15:01:47;;;;;;;9.15;3.67;;;18.20;54.80;;;;;;10473574;28;20416;-57
2021/04/21 15:06:50;;;;;;;4.85;2.92;;;18.20;54.90;;;;;;10484532;28;20044;-58
2021/04/21 15:11:51;;;;;;;4.10;2.42;;;18.20;55.10;;;;;;10490718;28;20024;-57
2021/04/21 15:16:52;;;;;;;4.50;2.80;;;18.20;55.20;;;;;;10475833;28;20040;-57
2021/04/21 15:21:52;;;;;;;4.22;2.88;;;18.20;55.20;;;;;;10492038;28;20115;-56
2021/04/21 15:26:53;;;;;;;4.00;2.90;;;18.20;55.40;;;;;;10490708;28;20037;-57
2021/04/21 15:32:00;;;;;;;5.63;2.75;;;18.20;55.40;;;;;;10490825;28;20149;-58
2021/04/21 15:37:04;;;;;;;6.88;2.50;;;18.30;55.50;;;;;;10497206;28;20029;-57
2021/04/21 15:42:05;;;;;;;7.20;3.50;;;18.20;55.60;;;;;;10477353;28;20493;-57
2021/04/21 15:47:05;;;;;;;7.10;3.15;;;18.30;55.90;;;;;;10496884;28;20107;-57
2021/04/21 15:52:06;;;;;;;6.55;3.35;;;18.30;56.20;;;;;;10496852;28;20141;-58
2021/04/21 15:57:09;;;;;;;8.60;3.35;;;18.30;56.70;;;;;;10481113;28;20127;-57
2021/04/21 16:02:10;;;;;;;9.27;3.60;;;18.30;57.20;;;;;;10470869;28;20036;-56
2021/04/21 16:07:11;;;;;;;5.78;2.92;;;18.40;56.90;;;;;;10471769;28;20073;-55
2021/04/21 16:12:12;;;;;;;10.57;3.33;;;18.30;56.80;;;;;;10496368;28;20059;-57
2021/04/21 16:17:13;;;;;;;5.18;3.55;;;18.30;57.00;;;;;;10470051;28;20036;-55
2021/04/21 16:22:13;;;;;;;10.27;3.60;;;18.30;59.30;;;;;;10496484;28;20081;-53
2021/04/21 16:27:14;;;;;;;7.63;4.05;;;18.40;60.50;;;;;;10496325;28;20116;-54
2021/04/21 16:32:15;;;;;;;12.20;3.30;;;18.40;60.70;;;;;;10474209;28;20028;-55
2021/04/21 16:37:15;;;;;;;9.40;3.40;;;18.40;60.70;;;;;;10496168;28;20043;-55
2021/04/21 16:42:16;;;;;;;11.48;3.30;;;18.40;61.20;;;;;;10498813;28;20492;-57
2021/04/21 16:47:18;;;;;;;10.93;3.13;;;18.40;60.90;;;;;;10503796;28;20039;-54
2021/04/21 16:52:18;;;;;;;15.30;3.28;;;18.40;58.70;;;;;;10485976;28;20032;-54
2021/04/21 16:57:20;;;;;;;6.80;2.40;;;18.40;58.90;;;;;;10503959;28;20501;-55
2021/04/21 17:02:22;;;;;;;9.35;2.80;;;18.40;59.10;;;;;;10499623;28;20024;-55
2021/04/21 17:07:22;;;;;;;6.88;2.65;;;18.40;59.30;;;;;;10503517;28;20081;-56
2021/04/21 17:12:23;;;;;;;6.03;2.45;;;18.40;59.30;;;;;;10484576;28;20044;-56
2021/04/21 17:17:24;;;;;;;12.05;3.13;;;18.30;58.80;;;;;;10484716;28;20427;-56
2021/04/21 17:22:26;;;;;;;9.63;3.33;;;18.30;58.80;;;;;;10483751;28;20473;-56
2021/04/21 17:27:27;;;;;;;6.65;2.92;;;18.40;58.90;;;;;;10498752;28;20025;-55
2021/04/21 17:32:28;;;;;;;11.40;3.35;;;18.30;58.40;;;;;;10501759;28;20032;-58
2021/04/21 17:37:29;;;;;;;12.85;2.80;;;18.30;58.30;;;;;;10477579;28;20109;-57
2021/04/21 17:42:59;;;;;;;10.82;3.42;;;18.30;58.00;;;;;;10477171;28;20527;-58
2021/04/21 17:48:05;;;;;;;9.63;2.88;;;18.30;57.60;;;;;;10499499;28;20476;-56
2021/04/21 17:53:06;;;;;;;7.95;2.97;;;18.30;57.20;;;;;;10499518;28;20109;-58
2021/04/21 17:58:07;;;;;;;5.55;2.33;;;18.30;57.00;;;;;;10500685;28;20381;-57
2021/04/21 18:03:08;;;;;;;8.60;2.35;;;18.30;56.80;;;;;;10482983;28;20105;-57
2021/04/21 18:08:09;;;;;;;5.43;3.03;;;18.20;57.10;;;;;;10500385;28;20702;-57
2021/04/21 18:13:10;;;;;;;5.75;2.38;;;18.20;56.50;;;;;;10500668;28;20111;-57
2021/04/21 18:18:11;;;;;;;4.25;2.22;;;18.20;56.50;;;;;;10483307;28;20047;-57
2021/04/21 18:23:12;;;;;;;4.68;2.05;;;18.20;56.00;;;;;;10481587;28;20044;-56
2021/04/21 18:28:13;;;;;;;4.75;2.35;;;18.20;55.70;;;;;;10500422;28;20040;-56
2021/04/21 18:33:13;;;;;;;7.18;2.40;;;18.20;56.60;;;;;;10468514;28;20070;-55
2021/04/21 18:38:14;;;;;;;5.22;1.98;;;18.30;56.90;;;;;;10472682;28;20047;-55
2021/04/21 18:43:16;;;;;;;6.63;2.40;;;18.30;57.40;;;;;;10499345;28;20174;-54
2021/04/21 18:48:17;;;;;;;6.55;2.53;;;18.30;57.40;;;;;;10500191;28;20027;-54
2021/04/21 18:53:18;;;;;;;7.55;1.95;;;18.30;57.50;;;;;;10499244;28;20064;-56
2021/04/21 18:58:18;;;;;;;5.38;2.30;;;18.30;57.80;;;;;;10497744;28;20040;-53
2021/04/21 19:03:19;;;;;;;4.53;1.90;;;18.30;57.90;;;;;;10493108;28;20384;-56
2021/04/21 19:08:24;;;;;;;5.78;1.98;;;18.30;57.90;;;;;;10496626;28;20483;-57
2021/04/21 19:13:25;;;;;;;3.85;1.73;;;18.30;57.90;;;;;;10498127;28;20044;-56
2021/04/21 19:18:27;;;;;;;5.95;2.33;;;18.30;57.90;;;;;;10498110;28;20435;-58
2021/04/21 19:23:28;;;;;;;9.10;2.35;;;18.30;58.30;;;;;;10479428;28;20060;-56
2021/04/21 19:28:29;;;;;;;4.90;1.98;;;18.30;57.90;;;;;;10466352;28;20066;-56
2021/04/21 19:33:31;;;;;;;6.50;2.38;;;18.30;57.60;;;;;;10497844;28;20104;-55
2021/04/21 19:38:32;;;;;;;3.72;1.85;;;18.20;57.50;;;;;;10478959;28;20029;-57
2021/04/21 19:43:32;;;;;;;4.93;2.08;;;18.20;57.50;;;;;;10497413;28;20091;-57
2021/04/21 19:48:33;;;;;;;3.60;1.40;;;18.20;57.50;;;;;;10497520;28;20073;-57
2021/04/21 19:53:34;;;;;;;4.97;1.98;;;18.20;57.50;;;;;;10497634;28;20040;-57
2021/04/21 19:58:37;;;;;;;2.95;1.58;;;18.10;57.40;;;;;;10497121;28;20111;-57
2021/04/21 20:03:38;;;;;;;4.65;1.60;;;18.10;57.40;;;;;;10497302;28;20153;-58
2021/04/21 20:08:44;;;;;;;4.05;1.42;;;18.20;57.40;;;;;;10496963;28;20118;-57
2021/04/21 20:13:45;;;;;;;2.63;1.40;;;18.20;57.30;;;;;;10497219;28;20515;-57
2021/04/21 20:18:45;;;;;;;3.83;1.38;;;18.10;57.20;;;;;;10496442;28;20124;-57
2021/04/21 20:23:47;;;;;;;3.35;1.25;;;18.10;57.20;;;;;;10496614;28;20508;-57
2021/04/21 20:28:48;;;;;;;2.67;1.58;;;18.10;57.00;;;;;;10485144;28;20082;-57
2021/04/21 20:33:49;;;;;;;4.30;1.70;;;18.10;57.00;;;;;;10509206;28;20426;-53
2021/04/21 20:38:49;;;;;;;3.03;1.10;;;18.10;56.90;;;;;;10496045;28;20032;-53
2021/04/21 20:43:50;;;;;;;4.72;1.20;;;18.10;56.80;;;;;;10506703;28;20115;-52
2021/04/21 20:48:51;;;;;;;3.50;1.25;;;18.10;56.90;;;;;;10499315;28;20123;-57
2021/04/21 20:53:51;;;;;;;2.80;1.00;;;18.10;57.00;;;;;;10496241;28;20033;-56
2021/04/21 20:58:52;;;;;;;3.00;1.17;;;18.00;57.00;;;;;;10495894;28;20139;-56
2021/04/21 21:03:53;;;;;;;2.67;1.35;;;18.00;56.90;;;;;;10496043;28;20099;-57
2021/04/21 21:08:53;;;;;;;3.13;1.30;;;18.00;56.90;;;;;;10496004;28;20118;-57
2021/04/21 21:13:54;;;;;;;1.42;0.80;;;18.00;56.90;;;;;;10495887;28;20071;-57
2021/04/21 21:18:55;;;;;;;2.47;0.80;;;18.00;56.90;;;;;;10495504;28;20119;-57
2021/04/21 21:23:55;;;;;;;4.20;1.33;;;18.00;56.90;;;;;;10477709;28;20109;-57
2021/04/21 21:28:56;;;;;;;2.58;1.20;;;18.00;56.80;;;;;;10498964;28;20035;-56
2021/04/21 21:33:57;;;;;;;3.83;1.48;;;18.00;56.80;;;;;;10502849;28;20030;-57
2021/04/21 21:38:57;;;;;;;2.05;0.82;;;18.00;56.70;;;;;;10502441;28;20046;-57
2021/04/21 21:43:58;;;;;;;5.30;1.10;;;18.00;56.70;;;;;;10502495;28;20132;-57
2021/04/21 21:48:59;;;;;;;2.40;1.20;;;18.00;56.80;;;;;;10502167;28;20066;-49
2021/04/21 21:54:00;;;;;;;2.85;1.20;;;18.00;56.80;;;;;;10502017;28;20039;-49
2021/04/21 21:59:00;;;;;;;2.42;1.42;;;17.90;56.70;;;;;;10501993;28;20032;-48
2021/04/21 22:04:02;;;;;;;1.45;0.90;;;18.00;56.70;;;;;;10501605;28;20081;-48
2021/04/21 22:09:12;;;;;;;2.33;0.88;;;17.90;56.70;;;;;;10501391;28;20033;-48
2021/04/21 22:14:13;;;;;;;3.78;1.27;;;17.90;56.60;;;;;;10501229;28;20040;-48
2021/04/21 22:19:14;;;;;;;2.90;1.00;;;17.90;56.60;;;;;;10500981;28;20491;-48
2021/04/21 22:24:18;;;;;;;2.20;0.98;;;17.90;56.60;;;;;;10500959;28;20081;-49
2021/04/21 22:29:20;;;;;;;1.98;1.00;;;17.80;56.50;;;;;;10500295;28;20047;-48
2021/04/21 22:34:21;;;;;;;2.67;1.00;;;17.80;56.50;;;;;;10500420;28;20064;-49
2021/04/21 22:39:22;;;;;;;2.05;1.10;;;17.80;56.30;;;;;;10498658;28;20534;-52
2021/04/21 22:44:23;;;;;;;2.83;1.85;;;17.80;56.30;;;;;;10482034;28;20090;-48
2021/04/21 22:49:23;;;;;;;2.83;1.02;;;17.80;56.30;;;;;;10499693;28;20078;-51
2021/04/21 22:54:24;;;;;;;4.65;1.10;;;17.80;56.30;;;;;;10499250;28;20036;-49
2021/04/21 22:59:25;;;;;;;1.55;0.73;;;17.80;56.10;;;;;;10499187;28;20025;-51
2021/04/21 23:04:25;;;;;;;2.30;1.08;;;17.90;55.90;;;;;;10499394;28;20146;-52
2021/04/21 23:09:26;;;;;;;2.28;1.05;;;17.90;55.80;;;;;;10498927;28;20037;-51
2021/04/21 23:14:27;;;;;;;2.78;1.10;;;17.90;55.80;;;;;;10506802;28;20075;-50
2021/04/21 23:19:27;;;;;;;2.90;1.50;;;17.90;55.70;;;;;;10503749;28;20036;-50
2021/04/21 23:24:28;;;;;;;3.85;1.13;;;17.90;55.70;;;;;;10498478;28;20055;-50
2021/04/21 23:29:29;;;;;;;2.80;0.95;;;17.90;55.60;;;;;;10498120;28;20058;-48
2021/04/21 23:34:30;;;;;;;2.10;0.73;;;17.80;55.60;;;;;;10497970;28;20028;-49
2021/04/21 23:39:30;;;;;;;3.08;1.65;;;17.80;55.70;;;;;;10497948;28;20499;-48
2021/04/21 23:44:31;;;;;;;1.85;0.90;;;17.80;55.80;;;;;;10480058;28;20048;-49
2021/04/21 23:49:32;;;;;;;2.45;0.95;;;17.80;55.80;;;;;;10495858;28;20040;-49
2021/04/21 23:54:34;;;;;;;2.22;0.90;;;17.80;55.80;;;;;;10497490;28;20024;-52
2021/04/21 23:59:35;;;;;;;4.60;1.50;;;17.80;55.80;;;;;;10497171;28;20036;-51
